createdAt,value
2018-08-04T00:00:52.229Z,88.15
2018-08-04T00:01:52.201Z,88.63
2018-08-04T00:02:52.190Z,87.18
2018-08-04T00:03:52.133Z,87.95
2018-08-04T00:04:52.097Z,87.66
2018-08-04T00:05:52.064Z,87.66
2018-08-04T00:06:52.022Z,87.95
2018-08-04T00:07:52.006Z,87.62
2018-08-04T00:08:51.960Z,88.01
2018-08-04T00:09:51.922Z,89.59
2018-08-04T00:10:51.881Z,89.75
2018-08-04T00:11:51.847Z,89.17
2018-08-04T00:12:51.833Z,88.87
2018-08-04T00:13:51.777Z,88.01
2018-08-04T00:14:51.749Z,88.49
2018-08-04T00:15:51.711Z,88.20
2018-08-04T00:16:51.679Z,88.68
2018-08-04T00:17:51.673Z,88.29
2018-08-04T00:18:51.601Z,89.17
2018-08-04T00:19:51.570Z,88.10
2018-08-04T00:20:51.534Z,89.94
2018-08-04T00:21:51.497Z,89.07
2018-08-04T00:22:51.472Z,88.10
2018-08-04T00:23:51.454Z,88.78
2018-08-04T00:24:51.396Z,89.36
2018-08-04T00:25:51.358Z,89.07
2018-08-04T00:26:51.333Z,88.97
2018-08-04T00:27:51.314Z,90.42
2018-08-04T00:28:51.257Z,90.81
2018-08-04T00:29:51.228Z,90.91
2018-08-04T00:30:51.182Z,90.42
2018-08-04T00:31:51.146Z,89.98
2018-08-04T00:32:51.142Z,89.98
2018-08-04T00:33:51.082Z,89.50
2018-08-04T00:34:51.057Z,89.50
2018-08-04T00:35:51.021Z,89.89
2018-08-04T00:36:50.977Z,88.92
2018-08-04T00:37:50.965Z,89.40
2018-08-04T00:38:50.902Z,89.11
2018-08-04T00:39:50.869Z,90.27
2018-08-04T00:40:50.837Z,89.40
2018-08-04T00:41:50.802Z,90.17
2018-08-04T00:42:50.786Z,90.27
2018-08-04T00:43:50.731Z,87.57
2018-08-04T00:44:50.696Z,88.09
2018-08-04T00:45:50.676Z,88.48
2018-08-04T00:46:50.631Z,88.96
2018-08-04T00:47:50.622Z,88.29
2018-08-04T00:48:50.561Z,87.90
2018-08-04T00:49:50.526Z,88.77
2018-08-04T00:50:50.484Z,88.67
2018-08-04T00:51:50.451Z,87.51
2018-08-04T00:52:50.442Z,87.41
2018-08-04T00:53:50.377Z,85.97
2018-08-04T00:54:50.351Z,85.97
2018-08-04T00:55:50.315Z,84.52
2018-08-04T00:56:50.281Z,84.94
2018-08-04T00:57:50.261Z,84.84
2018-08-04T00:58:50.214Z,84.84
2018-08-04T00:59:50.177Z,83.78
2018-08-04T01:00:50.144Z,82.62
2018-08-04T01:01:50.130Z,83.01
2018-08-04T01:02:50.066Z,81.30
2018-08-04T01:03:50.034Z,82.18
2018-08-04T01:04:50.002Z,81.21
2018-08-04T01:05:49.960Z,81.70
2018-08-04T01:06:49.960Z,80.92
2018-08-04T01:07:49.903Z,81.02
2018-08-04T01:08:49.865Z,80.92
2018-08-04T01:09:49.830Z,80.34
2018-08-04T01:10:49.796Z,79.70
2018-08-04T01:11:49.776Z,79.76
2018-08-04T01:12:49.725Z,80.73
2018-08-04T01:13:49.688Z,79.57
2018-08-04T01:14:49.648Z,79.41
2018-08-04T01:15:49.619Z,78.44
2018-08-04T01:16:49.602Z,78.34
2018-08-04T01:17:49.547Z,77.96
2018-08-04T01:18:49.519Z,78.15
2018-08-04T01:19:49.482Z,77.86
2018-08-04T01:20:49.448Z,77.86
2018-08-04T01:21:49.436Z,77.67
2018-08-04T01:22:49.372Z,77.19
2018-08-04T01:23:49.338Z,76.89
2018-08-04T01:24:49.307Z,76.99
2018-08-04T01:25:49.269Z,76.99
2018-08-04T01:26:49.269Z,76.99
2018-08-04T01:27:49.207Z,77.37
2018-08-04T01:28:49.168Z,76.60
2018-08-04T01:29:49.133Z,77.09
2018-08-04T01:30:49.105Z,76.70
2018-08-04T01:31:49.069Z,76.60
2018-08-04T01:32:49.058Z,76.79
2018-08-04T01:33:49.000Z,77.37
2018-08-04T01:34:48.967Z,77.57
2018-08-04T01:35:48.920Z,76.70
2018-08-04T01:36:48.887Z,76.99
2018-08-04T01:37:48.880Z,76.60
2018-08-04T01:38:48.826Z,76.89
2018-08-04T01:39:48.797Z,76.51
2018-08-04T01:40:48.757Z,76.60
2018-08-04T01:41:48.721Z,76.51
2018-08-04T01:42:48.708Z,76.02
2018-08-04T01:43:48.648Z,76.37
2018-08-04T01:44:48.621Z,76.56
2018-08-04T01:45:48.585Z,77.05
2018-08-04T01:46:48.542Z,76.66
2018-08-04T01:47:48.507Z,76.37
2018-08-04T01:48:48.497Z,77.14
2018-08-04T01:49:48.440Z,76.46
2018-08-04T01:50:48.413Z,76.95
2018-08-04T01:51:48.377Z,76.56
2018-08-04T01:52:48.367Z,76.46
2018-08-04T01:53:48.332Z,76.46
2018-08-04T01:54:48.275Z,76.66
2018-08-04T01:55:48.231Z,76.46
2018-08-04T01:56:48.197Z,77.05
2018-08-04T01:57:48.162Z,76.66
2018-08-04T01:58:48.159Z,78.02
2018-08-04T01:59:48.099Z,76.53
2018-08-04T02:00:48.058Z,77.24
2018-08-04T02:01:48.027Z,77.92
2018-08-04T02:02:48.023Z,76.43
2018-08-04T02:03:47.969Z,76.72
2018-08-04T02:04:47.922Z,77.11
2018-08-04T02:05:47.890Z,76.53
2018-08-04T02:06:47.849Z,76.82
2018-08-04T02:07:47.843Z,76.62
2018-08-04T02:08:47.778Z,76.62
2018-08-04T02:09:47.744Z,76.72
2018-08-04T02:10:47.717Z,77.20
2018-08-04T02:11:47.678Z,77.69
2018-08-04T02:12:47.651Z,77.11
2018-08-04T02:13:47.639Z,77.40
2018-08-04T02:14:47.572Z,76.14
2018-08-04T02:15:47.535Z,76.53
2018-08-04T02:16:47.506Z,76.62
2018-08-04T02:17:47.472Z,76.43
2018-08-04T02:18:47.460Z,76.72
2018-08-04T02:19:47.401Z,76.24
2018-08-04T02:20:47.365Z,76.72
2018-08-04T02:21:47.325Z,76.62
2018-08-04T02:22:47.298Z,76.33
2018-08-04T02:23:47.263Z,76.62
2018-08-04T02:24:47.251Z,77.11
2018-08-04T02:25:47.195Z,77.07
2018-08-04T02:26:47.153Z,77.07
2018-08-04T02:27:47.119Z,77.45
2018-08-04T02:28:47.087Z,76.39
2018-08-04T02:29:47.079Z,77.65
2018-08-04T02:30:47.020Z,78.03
2018-08-04T02:31:46.983Z,76.59
2018-08-04T02:32:46.940Z,77.07
2018-08-04T02:33:46.909Z,77.17
2018-08-04T02:34:46.912Z,76.49
2018-08-04T02:35:46.846Z,76.78
2018-08-04T02:36:46.809Z,76.49
2018-08-04T02:37:46.796Z,76.59
2018-08-04T02:38:46.735Z,76.49
2018-08-04T02:39:46.724Z,76.39
2018-08-04T02:40:46.666Z,76.20
2018-08-04T02:41:46.629Z,76.78
2018-08-04T02:42:46.601Z,76.39
2018-08-04T02:43:46.566Z,76.68
2018-08-04T02:44:46.558Z,76.39
2018-08-04T02:45:46.494Z,76.59
2018-08-04T02:46:46.456Z,76.49
2018-08-04T02:47:46.425Z,76.97
2018-08-04T02:48:46.393Z,76.49
2018-08-04T02:49:46.378Z,77.26
2018-08-04T02:50:46.314Z,76.49
2018-08-04T02:51:46.278Z,77.07
2018-08-04T02:52:46.251Z,77.17
2018-08-04T02:53:46.208Z,77.26
2018-08-04T02:54:46.206Z,77.51
2018-08-04T02:55:46.145Z,77.17
2018-08-04T02:56:46.112Z,77.13
2018-08-04T02:57:46.074Z,77.71
2018-08-04T02:58:46.032Z,77.90
2018-08-04T02:59:46.035Z,77.71
2018-08-04T03:00:45.964Z,77.71
2018-08-04T03:01:45.941Z,78.00
2018-08-04T03:02:45.896Z,78.48
2018-08-04T03:03:45.864Z,78.19
2018-08-04T03:04:45.861Z,78.38
2018-08-04T03:05:45.797Z,78.48
2018-08-04T03:06:45.765Z,78.54
2018-08-04T03:07:45.727Z,79.54
2018-08-04T03:08:45.684Z,79.80
2018-08-04T03:09:45.673Z,80.38
2018-08-04T03:10:45.612Z,79.31
2018-08-04T03:11:45.577Z,79.31
2018-08-04T03:12:45.546Z,79.31
2018-08-04T03:13:45.515Z,80.38
2018-08-04T03:14:45.505Z,79.41
2018-08-04T03:15:45.447Z,80.57
2018-08-04T03:16:45.403Z,80.18
2018-08-04T03:17:45.365Z,80.66
2018-08-04T03:18:45.357Z,80.57
2018-08-04T03:19:45.298Z,80.57
2018-08-04T03:20:45.259Z,80.57
2018-08-04T03:21:45.232Z,81.92
2018-08-04T03:22:45.188Z,81.49
2018-08-04T03:23:45.176Z,80.82
2018-08-04T03:24:45.127Z,80.72
2018-08-04T03:25:45.092Z,79.75
2018-08-04T03:26:45.055Z,79.27
2018-08-04T03:27:45.043Z,79.56
2018-08-04T03:28:45.047Z,79.17
2018-08-04T03:29:44.956Z,79.37
2018-08-04T03:30:44.924Z,79.02
2018-08-04T03:31:44.983Z,78.15
2018-08-04T03:32:44.965Z,77.86
2018-08-04T03:33:44.804Z,78.34
2018-08-04T03:34:44.786Z,78.92
2018-08-04T03:35:44.728Z,78.15
2018-08-04T03:36:44.703Z,77.76
2018-08-04T03:37:44.667Z,78.34
2018-08-04T03:38:44.634Z,79.50
2018-08-04T03:39:44.619Z,79.31
2018-08-04T03:40:44.553Z,79.22
2018-08-04T03:41:44.520Z,78.73
2018-08-04T03:42:44.483Z,79.02
2018-08-04T03:43:44.445Z,79.31
2018-08-04T03:44:44.439Z,79.31
2018-08-04T03:45:44.382Z,79.99
2018-08-04T03:46:44.351Z,78.06
2018-08-04T03:47:44.313Z,78.15
2018-08-04T03:48:44.270Z,78.54
2018-08-04T03:49:44.268Z,78.25
2018-08-04T03:50:44.207Z,78.54
2018-08-04T03:51:44.177Z,78.15
2018-08-04T03:52:44.127Z,78.64
2018-08-04T03:53:44.093Z,78.73
2018-08-04T03:54:44.064Z,79.50
2018-08-04T03:55:44.065Z,79.22
2018-08-04T03:56:43.992Z,79.37
2018-08-04T03:57:43.960Z,80.72
2018-08-04T03:58:43.922Z,79.95
2018-08-04T03:59:43.987Z,80.72
2018-08-04T04:00:43.848Z,80.24
2018-08-04T04:01:43.814Z,81.01
2018-08-04T04:02:43.777Z,81.11
2018-08-04T04:03:43.741Z,82.36
2018-08-04T04:04:43.734Z,81.88
2018-08-04T04:05:43.690Z,81.98
2018-08-04T04:06:43.667Z,81.88
2018-08-04T04:07:43.599Z,83.14
2018-08-04T04:08:43.568Z,81.11
2018-08-04T04:09:43.575Z,81.68
2018-08-04T04:10:43.500Z,82.07
2018-08-04T04:11:43.459Z,83.23
2018-08-04T04:12:43.420Z,84.20
2018-08-04T04:13:43.386Z,82.46
2018-08-04T04:14:43.347Z,81.78
2018-08-04T04:15:43.345Z,82.36
2018-08-04T04:16:43.281Z,82.26
2018-08-04T04:17:43.248Z,83.04
2018-08-04T04:18:43.213Z,82.46
2018-08-04T04:19:43.169Z,82.07
2018-08-04T04:20:43.158Z,81.49
2018-08-04T04:21:43.108Z,81.88
2018-08-04T04:22:43.076Z,82.65
2018-08-04T04:23:43.037Z,81.30
2018-08-04T04:24:42.997Z,80.82
2018-08-04T04:25:42.988Z,80.82
2018-08-04T04:26:42.926Z,80.53
2018-08-04T04:27:42.894Z,78.50
2018-08-04T04:28:42.860Z,78.31
2018-08-04T04:29:42.868Z,79.47
2018-08-04T04:30:42.787Z,79.08
2018-08-04T04:31:42.771Z,76.76
2018-08-04T04:32:42.710Z,76.47
2018-08-04T04:33:42.677Z,75.84
2018-08-04T04:34:42.642Z,75.74
2018-08-04T04:35:42.619Z,76.03
2018-08-04T04:36:42.600Z,76.12
2018-08-04T04:37:42.532Z,75.16
2018-08-04T04:38:42.509Z,76.03
2018-08-04T04:39:42.477Z,75.84
2018-08-04T04:40:42.474Z,75.29
2018-08-04T04:41:42.426Z,75.48
2018-08-04T04:42:42.365Z,75.29
2018-08-04T04:43:42.324Z,75.68
2018-08-04T04:44:42.290Z,75.68
2018-08-04T04:45:42.261Z,77.00
2018-08-04T04:46:42.238Z,75.58
2018-08-04T04:47:42.208Z,77.28
2018-08-04T04:48:42.149Z,77.28
2018-08-04T04:49:42.114Z,78.58
2018-08-04T04:50:42.076Z,78.15
2018-08-04T04:51:42.049Z,78.48
2018-08-04T04:52:42.042Z,77.61
2018-08-04T04:53:41.972Z,77.22
2018-08-04T04:54:41.935Z,76.06
2018-08-04T04:55:41.907Z,77.51
2018-08-04T04:56:41.876Z,78.29
2018-08-04T04:57:41.861Z,77.57
2018-08-04T04:58:41.802Z,78.73
2018-08-04T04:59:41.758Z,78.64
2018-08-04T05:00:41.725Z,78.83
2018-08-04T05:01:41.697Z,79.31
2018-08-04T05:02:41.684Z,80.14
2018-08-04T05:03:41.633Z,80.72
2018-08-04T05:04:41.591Z,81.01
2018-08-04T05:05:41.557Z,80.43
2018-08-04T05:06:41.527Z,80.76
2018-08-04T05:07:41.480Z,80.86
2018-08-04T05:08:41.528Z,81.34
2018-08-04T05:09:41.415Z,80.76
2018-08-04T05:10:41.383Z,80.95
2018-08-04T05:11:41.344Z,81.53
2018-08-04T05:12:41.307Z,80.66
2018-08-04T05:13:41.296Z,79.80
2018-08-04T05:14:41.239Z,80.76
2018-08-04T05:15:41.208Z,80.61
2018-08-04T05:16:41.175Z,81.09
2018-08-04T05:17:41.144Z,80.51
2018-08-04T05:18:41.149Z,79.45
2018-08-04T05:19:41.067Z,78.96
2018-08-04T05:20:41.026Z,78.58
2018-08-04T05:21:41.019Z,78.96
2018-08-04T05:22:40.954Z,77.65
2018-08-04T05:23:40.930Z,76.78
2018-08-04T05:24:40.919Z,77.84
2018-08-04T05:25:40.851Z,76.97
2018-08-04T05:26:40.816Z,77.84
2018-08-04T05:27:40.787Z,77.94
2018-08-04T05:28:40.753Z,77.07
2018-08-04T05:29:40.739Z,76.82
2018-08-04T05:30:40.706Z,75.54
2018-08-04T05:31:40.641Z,72.55
2018-08-04T05:32:40.607Z,69.25
2018-08-04T05:33:40.599Z,66.99
2018-08-04T05:34:40.566Z,65.46
2018-08-04T05:35:40.506Z,66.47
2018-08-04T05:36:40.478Z,67.02
2018-08-04T05:37:40.441Z,67.28
2018-08-04T05:38:40.418Z,69.18
2018-08-04T05:39:40.369Z,68.57
2018-08-04T05:40:40.349Z,69.60
2018-08-04T05:41:40.302Z,71.02
2018-08-04T05:42:40.269Z,71.60
2018-08-04T05:43:40.310Z,73.25
2018-08-04T05:44:40.196Z,72.57
2018-08-04T05:45:40.180Z,73.02
2018-08-04T05:46:40.127Z,74.08
2018-08-04T05:47:40.113Z,74.18
2018-08-04T05:48:40.066Z,75.05
2018-08-04T05:49:40.029Z,75.05
2018-08-04T05:50:40.021Z,75.11
2018-08-04T05:51:39.954Z,75.31
2018-08-04T05:52:39.926Z,75.70
2018-08-04T05:53:39.889Z,76.56
2018-08-04T05:54:39.858Z,76.95
2018-08-04T05:55:39.856Z,76.56
2018-08-04T05:56:39.792Z,76.46
2018-08-04T05:57:39.752Z,76.46
2018-08-04T05:58:39.718Z,77.44
2018-08-04T05:59:39.691Z,76.76
2018-08-04T06:00:39.697Z,77.92
2018-08-04T06:01:39.646Z,76.76
2018-08-04T06:02:39.592Z,77.14
2018-08-04T06:03:39.547Z,77.63
2018-08-04T06:04:39.515Z,78.02
2018-08-04T06:05:39.484Z,78.11
2018-08-04T06:06:39.500Z,77.92
2018-08-04T06:07:39.415Z,78.50
2018-08-04T06:08:39.383Z,78.59
2018-08-04T06:09:39.360Z,78.69
2018-08-04T06:10:39.399Z,78.99
2018-08-04T06:11:39.382Z,77.63
2018-08-04T06:12:39.244Z,77.82
2018-08-04T06:13:39.214Z,76.95
2018-08-04T06:14:39.180Z,76.76
2018-08-04T06:15:39.142Z,76.56
2018-08-04T06:16:39.107Z,76.28
2018-08-04T06:17:39.094Z,76.86
2018-08-04T06:18:39.038Z,76.66
2018-08-04T06:19:39.011Z,77.24
2018-08-04T06:20:38.976Z,77.96
2018-08-04T06:21:38.940Z,76.60
2018-08-04T06:22:39.020Z,75.63
2018-08-04T06:23:38.867Z,75.24
2018-08-04T06:24:38.876Z,73.25
2018-08-04T06:25:38.845Z,71.41
2018-08-04T06:26:38.788Z,73.09
2018-08-04T06:27:38.830Z,70.99
2018-08-04T06:28:38.725Z,70.51
2018-08-04T06:29:38.672Z,71.12
2018-08-04T06:30:38.743Z,70.35
2018-08-04T06:31:38.622Z,67.66
2018-08-04T06:32:38.580Z,67.02
2018-08-04T06:33:38.594Z,65.11
2018-08-04T06:34:38.505Z,65.30
2018-08-04T06:35:38.461Z,65.89
2018-08-04T06:36:38.439Z,65.40
2018-08-04T06:37:38.422Z,67.15
2018-08-04T06:38:38.390Z,65.30
2018-08-04T06:39:38.401Z,65.63
2018-08-04T06:40:38.307Z,65.08
2018-08-04T06:41:38.290Z,62.41
2018-08-04T06:42:38.259Z,61.83
2018-08-04T06:43:38.195Z,62.48
2018-08-04T06:44:38.171Z,62.19
2018-08-04T06:45:38.142Z,63.55
2018-08-04T06:46:38.108Z,63.94
2018-08-04T06:47:38.110Z,64.69
2018-08-04T06:48:38.033Z,65.66
2018-08-04T06:49:38.004Z,64.01
2018-08-04T06:50:37.968Z,65.24
2018-08-04T06:51:37.940Z,64.46
2018-08-04T06:52:37.928Z,65.24
2018-08-04T06:53:37.875Z,65.63
2018-08-04T06:54:37.845Z,66.21
2018-08-04T06:55:37.802Z,65.72
2018-08-04T06:56:37.767Z,65.66
2018-08-04T06:57:37.756Z,64.56
2018-08-04T06:58:37.705Z,65.75
2018-08-04T06:59:37.674Z,64.78
2018-08-04T07:00:37.641Z,63.91
2018-08-04T07:01:37.601Z,62.58
2018-08-04T07:02:37.591Z,62.61
2018-08-04T07:03:37.540Z,61.87
2018-08-04T07:04:37.512Z,59.59
2018-08-04T07:05:37.480Z,59.81
2018-08-04T07:06:37.441Z,59.55
2018-08-04T07:07:37.431Z,58.40
2018-08-04T07:08:37.370Z,56.12
2018-08-04T07:09:37.338Z,54.42
2018-08-04T07:10:37.308Z,53.59
2018-08-04T07:11:37.278Z,50.81
2018-08-04T07:12:37.254Z,50.20
2018-08-04T07:13:37.246Z,51.71
2018-08-04T07:14:37.184Z,52.15
2018-08-04T07:15:37.144Z,54.00
2018-08-04T07:16:47.494Z,55.12
2018-08-04T07:17:37.082Z,56.87
2018-08-04T07:18:37.068Z,56.68
2018-08-04T07:19:37.018Z,56.68
2018-08-04T07:20:36.983Z,56.68
2018-08-04T07:21:36.958Z,55.66
2018-08-04T07:22:36.931Z,54.61
2018-08-04T07:23:36.928Z,53.27
2018-08-04T07:24:36.865Z,53.54
2018-08-04T07:25:36.835Z,54.44
2018-08-04T07:26:36.796Z,51.05
2018-08-04T07:27:36.765Z,50.90
2018-08-04T07:28:36.733Z,49.55
2018-08-04T07:29:36.732Z,48.38
2018-08-04T07:30:36.677Z,49.14
2018-08-04T07:31:36.639Z,50.02
2018-08-04T07:32:36.617Z,49.75
2018-08-04T07:33:36.590Z,49.55
2018-08-04T07:34:36.585Z,49.58
2018-08-04T07:35:36.527Z,49.85
2018-08-04T07:36:36.503Z,47.91
2018-08-04T07:37:36.458Z,47.89
2018-08-04T07:38:36.430Z,48.16
2018-08-04T07:39:36.417Z,50.29
2018-08-04T07:40:36.366Z,50.63
2018-08-04T07:41:36.348Z,51.29
2018-08-04T07:42:36.315Z,53.32
2018-08-04T07:43:36.283Z,52.54
2018-08-04T07:44:36.283Z,52.34
2018-08-04T07:45:36.220Z,52.86
2018-08-04T07:46:36.185Z,50.54
2018-08-04T07:47:36.193Z,50.17
2018-08-04T07:48:36.142Z,50.39
2018-08-04T07:49:36.094Z,50.02
2018-08-04T07:50:36.091Z,50.61
2018-08-04T07:51:36.034Z,50.37
2018-08-04T07:52:36.007Z,48.11
2018-08-04T07:53:35.992Z,48.11
2018-08-04T07:54:46.048Z,48.11
2018-08-04T07:55:35.945Z,47.72
2018-08-04T07:56:35.887Z,48.21
2018-08-04T07:57:35.859Z,48.03
2018-08-04T07:58:35.830Z,49.51
2018-08-04T07:59:35.807Z,48.65
2018-08-04T08:00:35.804Z,47.94
2018-08-04T08:01:35.746Z,47.84
2018-08-04T08:02:35.715Z,46.56
2018-08-04T08:03:35.695Z,47.64
2018-08-04T08:04:35.662Z,48.92
2018-08-04T08:05:35.641Z,50.29
2018-08-04T08:06:35.628Z,49.73
2018-08-04T08:07:35.572Z,48.89
2018-08-04T08:08:35.543Z,47.42
2018-08-04T08:09:35.516Z,45.43
2018-08-04T08:10:35.569Z,46.10
2018-08-04T08:11:35.489Z,46.00
2018-08-04T08:12:35.436Z,46.78
2018-08-04T08:13:35.410Z,45.51
2018-08-04T08:14:35.384Z,45.90
2018-08-04T08:15:35.347Z,48.08
2018-08-04T08:16:35.340Z,46.81
2018-08-04T08:17:35.299Z,47.59
2018-08-04T08:18:35.271Z,47.00
2018-08-04T08:19:35.238Z,45.77
2018-08-04T08:20:35.205Z,44.96
2018-08-04T08:21:35.210Z,44.82
2018-08-04T08:22:35.152Z,45.49
2018-08-04T08:23:35.136Z,45.98
2018-08-04T08:24:35.111Z,47.37
2018-08-04T08:25:35.084Z,46.69
2018-08-04T08:26:35.048Z,49.26
2018-08-04T08:27:35.044Z,46.93
2018-08-04T08:28:35.017Z,47.20
2018-08-04T08:29:34.968Z,46.91
2018-08-04T08:30:34.952Z,45.53
2018-08-04T08:31:34.975Z,43.86
2018-08-04T08:32:34.918Z,45.70
2018-08-04T08:33:34.865Z,44.84
2018-08-04T08:34:34.847Z,45.75
2018-08-04T08:35:34.821Z,44.87
2018-08-04T08:36:34.788Z,43.35
2018-08-04T08:37:34.796Z,44.51
2018-08-04T08:38:34.735Z,44.94
2018-08-04T08:39:34.709Z,43.86
2018-08-04T08:40:34.704Z,44.47
2018-08-04T08:41:34.661Z,43.71
2018-08-04T08:42:34.637Z,43.24
2018-08-04T08:43:34.638Z,42.85
2018-08-04T08:44:34.584Z,41.37
2018-08-04T08:45:34.564Z,42.53
2018-08-04T08:46:34.531Z,42.92
2018-08-04T08:47:34.505Z,43.61
2018-08-04T08:48:34.505Z,43.83
2018-08-04T08:49:34.461Z,43.63
2018-08-04T08:50:34.436Z,42.77
2018-08-04T08:51:34.404Z,42.38
2018-08-04T08:52:34.383Z,42.77
2018-08-04T08:53:34.506Z,42.77
2018-08-04T08:54:34.338Z,41.78
2018-08-04T08:55:34.320Z,42.67
2018-08-04T08:56:34.288Z,42.59
2018-08-04T08:57:34.262Z,42.16
2018-08-04T08:58:34.234Z,42.75
2018-08-04T08:59:34.249Z,42.65
2018-08-04T09:00:34.186Z,43.85
2018-08-04T09:01:34.164Z,41.88
2018-08-04T09:02:34.148Z,41.96
2018-08-04T09:03:34.122Z,41.29
2018-08-04T09:04:34.109Z,44.17
2018-08-04T09:05:34.067Z,40.74
2018-08-04T09:06:34.048Z,40.64
2018-08-04T09:07:34.025Z,39.64
2018-08-04T09:08:34.038Z,40.33
2018-08-04T09:09:34.001Z,41.80
2018-08-04T09:10:33.947Z,42.41
2018-08-04T09:11:33.922Z,40.82
2018-08-04T09:12:33.904Z,40.03
2018-08-04T09:13:33.876Z,39.84
2018-08-04T09:14:33.884Z,41.24
2018-08-04T09:15:33.897Z,40.51
2018-08-04T09:16:33.815Z,40.00
2018-08-04T09:17:33.795Z,41.88
2018-08-04T09:18:33.757Z,40.41
2018-08-04T09:19:33.734Z,40.41
2018-08-04T09:20:33.749Z,42.28
2018-08-04T09:21:33.708Z,40.01
2018-08-04T09:22:33.668Z,40.00
2018-08-04T09:23:33.644Z,39.37
2018-08-04T09:24:33.646Z,41.84
2018-08-04T09:25:33.596Z,41.96
2018-08-04T09:26:33.579Z,40.21
2018-08-04T09:27:33.552Z,40.31
2018-08-04T09:28:33.533Z,40.01
2018-08-04T09:29:33.615Z,40.41
2018-08-04T09:30:33.504Z,39.70
2018-08-04T09:31:33.455Z,42.06
2018-08-04T09:32:33.431Z,41.86
2018-08-04T09:33:33.410Z,40.51
2018-08-04T09:34:33.395Z,40.39
2018-08-04T09:35:33.397Z,41.69
2018-08-04T09:36:33.341Z,40.72
2018-08-04T09:37:33.319Z,40.72
2018-08-04T09:38:33.300Z,40.03
2018-08-04T09:39:33.279Z,40.82
2018-08-04T09:40:33.280Z,40.13
2018-08-04T09:41:33.227Z,39.44
2018-08-04T09:42:33.201Z,40.64
2018-08-04T09:43:33.180Z,39.26
2018-08-04T09:44:33.160Z,38.38
2018-08-04T09:45:33.155Z,38.48
2018-08-04T09:46:33.116Z,37.97
2018-08-04T09:47:33.095Z,38.85
2018-08-04T09:48:33.070Z,38.54
2018-08-04T09:49:33.052Z,38.78
2018-08-04T09:50:33.043Z,40.84
2018-08-04T09:51:32.999Z,41.94
2018-08-04T09:52:33.045Z,39.60
2018-08-04T09:53:32.959Z,40.41
2018-08-04T09:54:32.929Z,38.42
2018-08-04T09:55:32.936Z,39.72
2018-08-04T09:56:32.886Z,39.82
2018-08-04T09:57:32.875Z,40.63
2018-08-04T09:58:32.852Z,37.85
2018-08-04T09:59:32.862Z,39.15
2018-08-04T10:00:32.825Z,39.47
2018-08-04T10:01:32.784Z,38.48
2018-08-04T10:02:32.750Z,39.26
2018-08-04T10:03:32.728Z,38.36
2018-08-04T10:04:32.710Z,39.18
2018-08-04T10:05:32.704Z,37.38
2018-08-04T10:06:32.675Z,38.76
2018-08-04T10:07:32.648Z,40.45
2018-08-04T10:08:32.619Z,39.07
2018-08-04T10:09:32.596Z,39.17
2018-08-04T10:10:32.605Z,37.99
2018-08-04T10:11:32.568Z,37.20
2018-08-04T10:12:32.548Z,38.97
2018-08-04T10:13:32.523Z,37.89
2018-08-04T10:14:32.497Z,37.97
2018-08-04T10:15:32.497Z,38.17
2018-08-04T10:16:32.450Z,38.87
2018-08-04T10:17:32.431Z,37.89
2018-08-04T10:18:32.417Z,37.57
2018-08-04T10:19:32.397Z,37.85
2018-08-04T10:20:32.412Z,39.01
2018-08-04T10:21:32.352Z,38.90
2018-08-04T10:22:32.324Z,38.98
2018-08-04T10:23:32.304Z,38.90
2018-08-04T10:24:32.286Z,39.48
2018-08-04T10:25:32.288Z,39.68
2018-08-04T10:26:32.241Z,38.78
2018-08-04T10:27:32.213Z,39.14
2018-08-04T10:28:32.201Z,40.80
2018-08-04T10:29:32.174Z,42.49
2018-08-04T10:30:32.183Z,41.02
2018-08-04T10:31:32.135Z,41.82
2018-08-04T10:32:32.173Z,40.76
2018-08-04T10:33:32.095Z,40.45
2018-08-04T10:34:32.071Z,40.06
2018-08-04T10:35:32.064Z,40.45
2018-08-04T10:36:32.017Z,41.02
2018-08-04T10:37:32.000Z,40.82
2018-08-04T10:38:32.033Z,41.47
2018-08-04T10:39:31.958Z,42.74
2018-08-04T10:40:31.949Z,43.52
2018-08-04T10:41:31.917Z,42.10
2018-08-04T10:42:31.895Z,43.37
2018-08-04T10:43:31.876Z,41.98
2018-08-04T10:44:31.852Z,43.57
2018-08-04T10:45:31.843Z,42.49
2018-08-04T10:46:31.803Z,42.08
2018-08-04T10:47:31.778Z,43.72
2018-08-04T10:48:31.759Z,43.12
2018-08-04T10:49:31.808Z,43.60
2018-08-04T10:50:31.741Z,45.17
2018-08-04T10:51:31.699Z,45.00
2018-08-04T10:52:31.672Z,43.94
2018-08-04T10:53:31.646Z,43.08
2018-08-04T10:54:31.675Z,43.08
2018-08-04T10:55:31.636Z,42.35
2018-08-04T10:56:31.585Z,43.43
2018-08-04T10:57:31.558Z,43.23
2018-08-04T10:58:31.549Z,45.34
2018-08-04T10:59:31.509Z,43.29
2018-08-04T11:00:31.557Z,42.02
2018-08-04T11:01:31.481Z,40.64
2018-08-04T11:02:31.454Z,42.33
2018-08-04T11:03:31.431Z,42.63
2018-08-04T11:04:31.400Z,40.88
2018-08-04T11:05:31.404Z,40.88
2018-08-04T11:06:31.364Z,39.78
2018-08-04T11:07:31.344Z,41.06
2018-08-04T11:08:31.321Z,42.63
2018-08-04T11:09:31.301Z,40.76
2018-08-04T11:10:31.298Z,40.48
2018-08-04T11:11:31.248Z,39.31
2018-08-04T11:12:31.265Z,40.00
2018-08-04T11:13:31.219Z,40.70
2018-08-04T11:14:31.196Z,40.41
2018-08-04T11:15:31.197Z,39.82
2018-08-04T11:16:31.143Z,39.44
2018-08-04T11:17:31.129Z,40.53
2018-08-04T11:18:31.104Z,40.01
2018-08-04T11:19:31.088Z,39.23
2018-08-04T11:20:31.090Z,39.01
2018-08-04T11:21:31.046Z,39.70
2018-08-04T11:22:31.032Z,40.80
2018-08-04T11:23:31.008Z,40.41
2018-08-04T11:24:30.983Z,39.52
2018-08-04T11:25:30.990Z,40.41
2018-08-04T11:26:30.950Z,40.61
2018-08-04T11:27:30.947Z,39.40
2018-08-04T11:28:30.899Z,39.27
2018-08-04T11:29:30.877Z,42.92
2018-08-04T11:30:30.861Z,42.04
2018-08-04T11:31:30.886Z,41.64
2018-08-04T11:32:30.844Z,43.33
2018-08-04T11:33:30.804Z,41.17
2018-08-04T11:34:30.790Z,40.88
2018-08-04T11:35:30.760Z,41.17
2018-08-04T11:36:30.760Z,42.25
2018-08-04T11:37:30.714Z,39.90
2018-08-04T11:38:30.709Z,40.37
2018-08-04T11:39:30.676Z,41.94
2018-08-04T11:40:30.660Z,42.92
2018-08-04T11:41:30.642Z,41.64
2018-08-04T11:42:30.635Z,41.86
2018-08-04T11:43:30.598Z,39.80
2018-08-04T11:44:30.582Z,39.48
2018-08-04T11:45:30.616Z,42.33
2018-08-04T11:46:30.543Z,42.16
2018-08-04T11:47:30.542Z,39.40
2018-08-04T11:48:30.493Z,38.72
2018-08-04T11:49:30.475Z,40.56
2018-08-04T11:50:30.452Z,38.90
2018-08-04T11:51:30.483Z,39.60
2018-08-04T11:52:30.442Z,40.86
2018-08-04T11:53:30.411Z,39.47
2018-08-04T11:54:30.382Z,40.03
2018-08-04T11:55:30.367Z,40.43
2018-08-04T11:56:30.334Z,40.35
2018-08-04T11:57:30.340Z,40.33
2018-08-04T11:58:30.343Z,39.64
2018-08-04T11:59:30.279Z,41.92
2018-08-04T12:00:30.284Z,39.95
2018-08-04T12:01:30.235Z,39.37
2018-08-04T12:02:30.219Z,40.35
2018-08-04T12:03:30.216Z,40.45
2018-08-04T12:04:30.173Z,42.51
2018-08-04T12:05:30.160Z,41.03
2018-08-04T12:06:30.134Z,41.25
2018-08-04T12:07:30.112Z,41.84
2018-08-04T12:08:30.111Z,39.48
2018-08-04T12:09:30.063Z,39.98
2018-08-04T12:10:30.042Z,40.66
2018-08-04T12:11:30.024Z,40.08
2018-08-04T12:12:30.046Z,40.58
2018-08-04T12:13:29.987Z,40.98
2018-08-04T12:14:29.964Z,39.90
2018-08-04T12:15:29.935Z,39.60
2018-08-04T12:16:29.932Z,39.29
2018-08-04T12:17:29.902Z,39.58
2018-08-04T12:18:29.911Z,38.90
2018-08-04T12:19:29.859Z,38.80
2018-08-04T12:20:29.834Z,39.48
2018-08-04T12:21:29.809Z,40.56
2018-08-04T12:22:29.793Z,40.66
2018-08-04T12:23:29.792Z,39.29
2018-08-04T12:24:29.756Z,39.39
2018-08-04T12:25:29.748Z,39.19
2018-08-04T12:26:29.713Z,39.56
2018-08-04T12:27:29.697Z,39.56
2018-08-04T12:28:29.689Z,38.88
2018-08-04T12:29:29.653Z,39.00
2018-08-04T12:30:29.633Z,40.47
2018-08-04T12:31:29.660Z,39.09
2018-08-04T12:32:29.584Z,39.29
2018-08-04T12:33:29.588Z,38.80
2018-08-04T12:34:29.545Z,39.09
2018-08-04T12:35:29.523Z,39.17
2018-08-04T12:36:29.512Z,38.93
2018-08-04T12:37:29.510Z,39.43
2018-08-04T12:38:29.500Z,40.01
2018-08-04T12:39:29.446Z,40.61
2018-08-04T12:40:29.418Z,39.94
2018-08-04T12:41:29.403Z,38.76
2018-08-04T12:42:29.381Z,39.94
2018-08-04T12:43:29.378Z,40.84
2018-08-04T12:44:29.341Z,41.82
2018-08-04T12:45:29.350Z,40.37
2018-08-04T12:46:29.353Z,40.55
2018-08-04T12:47:29.272Z,40.37
2018-08-04T12:48:29.301Z,40.66
2018-08-04T12:49:29.342Z,39.68
2018-08-04T12:50:29.347Z,39.39
2018-08-04T12:51:29.215Z,38.90
2018-08-04T12:52:29.169Z,38.68